createdAt,value
2023-05-10T00:00:40.751Z,100947.34
2023-05-10T00:03:07.319Z,100955.00
2023-05-10T00:05:33.717Z,100948.88
2023-05-10T00:08:00.330Z,100946.56
2023-05-10T00:10:26.998Z,100946.56
2023-05-10T00:12:53.393Z,100951.09
2023-05-10T00:15:19.813Z,100946.56
2023-05-10T00:17:46.207Z,100946.22
2023-05-10T00:20:12.805Z,100935.56
2023-05-10T00:22:39.272Z,100944.19
2023-05-10T00:25:06.436Z,100939.97
2023-05-10T00:27:32.784Z,100944.19
2023-05-10T00:30:00.331Z,100934.66
2023-05-10T00:32:26.880Z,100938.88
2023-05-10T00:34:53.213Z,100931.31
2023-05-10T00:37:19.546Z,100945.44
2023-05-10T00:39:45.978Z,100942.78
2023-05-10T00:42:12.290Z,100931.78
2023-05-10T00:44:38.837Z,100946.66
2023-05-10T00:47:05.380Z,100943.34
2023-05-10T00:49:32.142Z,100934.22
2023-05-10T00:51:58.716Z,100935.78
2023-05-10T00:54:25.339Z,100932.78
2023-05-10T00:56:52.672Z,100940.47
2023-05-10T00:59:19.820Z,100940.47
2023-05-10T01:01:47.177Z,100936.69
2023-05-10T01:04:15.289Z,100941.69
2023-05-10T01:06:45.622Z,100947.03
2023-05-10T01:09:12.911Z,100942.03
2023-05-10T01:11:40.875Z,100942.47
2023-05-10T01:14:07.644Z,100940.25
2023-05-10T01:16:41.813Z,100942.59
2023-05-10T01:19:17.506Z,100946.03
2023-05-10T01:21:50.757Z,100940.69
2023-05-10T01:24:47.617Z,100949.16
2023-05-10T01:27:38.660Z,100949.63
2023-05-10T01:30:34.765Z,100937.81
2023-05-10T01:33:19.946Z,100932.16
2023-05-10T01:35:46.205Z,100944.72
2023-05-10T01:38:18.893Z,100941.59
2023-05-10T01:40:48.140Z,100942.69
2023-05-10T01:43:29.043Z,100943.81
2023-05-10T01:46:05.601Z,100946.94
2023-05-10T01:48:33.174Z,100948.16
2023-05-10T01:50:59.987Z,100947.81
2023-05-10T01:53:27.652Z,100947.50
2023-05-10T01:55:56.102Z,100946.72
2023-05-10T01:58:28.363Z,100942.19
2023-05-10T02:00:55.596Z,100946.41
2023-05-10T02:03:24.914Z,100945.94
2023-05-10T02:05:54.038Z,100942.47
2023-05-10T02:08:22.727Z,100950.06
2023-05-10T02:10:52.433Z,100943.50
2023-05-10T02:13:20.421Z,100940.38
2023-05-10T02:15:51.809Z,100954.47
2023-05-10T02:18:19.445Z,100954.94
2023-05-10T02:20:47.972Z,100949.91
2023-05-10T02:23:16.320Z,100950.69
2023-05-10T02:25:44.768Z,100954.19
2023-05-10T02:28:13.089Z,100954.94
2023-05-10T02:30:40.015Z,100958.59
2023-05-10T02:33:07.204Z,100958.94
2023-05-10T02:35:34.995Z,100959.59
2023-05-10T02:38:02.077Z,100967.16
2023-05-10T02:40:29.493Z,100969.34
2023-05-10T02:42:58.316Z,100974.38
2023-05-10T02:45:29.808Z,100980.81
2023-05-10T02:47:57.190Z,100984.94
2023-05-10T02:50:28.265Z,100976.91
2023-05-10T02:53:00.590Z,100979.59
2023-05-10T02:55:33.541Z,100984.59
2023-05-10T02:58:01.875Z,100981.81
2023-05-10T03:00:28.242Z,100977.91
2023-05-10T03:02:55.092Z,100978.25
2023-05-10T03:05:21.725Z,100981.69
2023-05-10T03:07:49.344Z,100990.22
2023-05-10T03:10:16.201Z,100989.31
2023-05-10T03:12:49.244Z,100986.97
2023-05-10T03:15:32.519Z,100982.97
2023-05-10T03:18:12.092Z,100982.81
2023-05-10T03:20:48.374Z,100984.72
2023-05-10T03:23:22.514Z,100992.84
2023-05-10T03:25:50.189Z,100993.63
2023-05-10T03:28:17.590Z,100996.59
2023-05-10T03:30:44.730Z,100997.28
2023-05-10T03:33:11.937Z,100997.59
2023-05-10T03:35:38.307Z,100995.81
2023-05-10T03:38:06.519Z,101001.94
2023-05-10T03:40:33.399Z,100998.81
2023-05-10T03:43:00.363Z,101000.38
2023-05-10T03:45:26.951Z,100996.59
2023-05-10T03:47:53.658Z,100996.59
2023-05-10T03:50:20.567Z,100995.72
2023-05-10T03:52:46.903Z,100993.34
2023-05-10T03:55:13.505Z,101001.69
2023-05-10T03:57:39.890Z,100997.59
2023-05-10T04:00:06.953Z,100997.13
2023-05-10T04:02:33.365Z,101002.94
2023-05-10T04:04:59.747Z,101001.06
2023-05-10T04:07:26.083Z,100999.16
2023-05-10T04:09:52.466Z,100996.34
2023-05-10T04:12:18.826Z,101005.47
2023-05-10T04:14:45.188Z,101002.47
2023-05-10T04:17:11.954Z,101006.69
2023-05-10T04:19:38.478Z,101008.28
2023-05-10T04:22:04.826Z,101011.03
2023-05-10T04:24:31.292Z,101012.59
2023-05-10T04:26:58.016Z,101005.38
2023-05-10T04:29:24.413Z,100998.81
2023-05-10T04:31:51.913Z,101004.94
2023-05-10T04:34:18.394Z,101004.59
2023-05-10T04:36:44.719Z,101005.06
2023-05-10T04:39:11.465Z,101006.97
2023-05-10T04:41:39.075Z,101005.84
2023-05-10T04:44:05.587Z,101009.28
2023-05-10T04:46:32.014Z,101009.75
2023-05-10T04:48:58.440Z,101013.53
2023-05-10T04:51:24.814Z,101015.84
2023-05-10T04:54:04.503Z,101018.22
2023-05-10T04:56:32.265Z,101019.00
2023-05-10T04:58:58.660Z,101017.53
2023-05-10T05:01:25.103Z,101024.91
2023-05-10T05:03:53.346Z,101027.56
2023-05-10T05:06:20.041Z,101024.22
2023-05-10T05:08:46.394Z,101029.25
2023-05-10T05:11:12.763Z,101032.72
2023-05-10T05:13:39.826Z,101034.72
2023-05-10T05:16:06.558Z,101034.72
2023-05-10T05:18:32.962Z,101039.72
2023-05-10T05:20:59.451Z,101038.94
2023-05-10T05:23:25.840Z,101037.84
2023-05-10T05:25:53.398Z,101049.31
2023-05-10T05:28:24.029Z,101048.63
2023-05-10T05:30:50.361Z,101049.41
2023-05-10T05:33:16.680Z,101048.28
2023-05-10T05:35:48.377Z,101051.44
2023-05-10T05:38:15.156Z,101054.09
2023-05-10T05:40:41.493Z,101051.88
2023-05-10T05:43:07.834Z,101061.44
2023-05-10T05:45:34.241Z,101063.03
2023-05-10T05:48:00.675Z,101059.25
2023-05-10T05:50:27.162Z,101055.13
2023-05-10T05:52:53.546Z,101060.94
2023-05-10T05:55:20.201Z,101064.38
2023-05-10T05:57:46.858Z,101065.47
2023-05-10T06:00:17.364Z,101068.13
2023-05-10T06:02:44.115Z,101071.91
2023-05-10T06:05:10.762Z,101079.13
2023-05-10T06:07:37.204Z,101078.22
2023-05-10T06:10:04.083Z,101082.34
2023-05-10T06:12:30.756Z,101089.91
2023-05-10T06:14:57.070Z,101088.66
2023-05-10T06:17:23.463Z,101086.13
2023-05-10T06:19:49.843Z,101091.91
2023-05-10T06:22:16.974Z,101096.91
2023-05-10T06:24:44.697Z,101100.81
2023-05-10T06:27:12.145Z,101105.38
2023-05-10T06:29:38.681Z,101098.94
2023-05-10T06:32:05.478Z,101102.03
2023-05-10T06:34:32.611Z,101088.84
2023-05-10T06:36:59.120Z,101095.09
2023-05-10T06:39:25.482Z,101094.91
2023-05-10T06:41:51.877Z,101098.44
2023-05-10T06:44:18.220Z,101094.22
2023-05-10T06:46:44.693Z,101103.78
2023-05-10T06:49:11.216Z,101102.56
2023-05-10T06:51:38.081Z,101109.59
2023-05-10T06:54:04.433Z,101112.50
2023-05-10T06:56:31.121Z,101112.16
2023-05-10T06:58:57.452Z,101104.94
2023-05-10T07:01:23.922Z,101105.19
2023-05-10T07:03:50.458Z,101114.56
2023-05-10T07:06:29.503Z,101109.09
2023-05-10T07:08:59.678Z,101118.09
2023-05-10T07:11:26.055Z,101116.53
2023-05-10T07:13:52.376Z,101124.75
2023-05-10T07:16:19.025Z,101128.53
2023-05-10T07:18:45.502Z,101124.41
2023-05-10T07:21:11.854Z,101126.66
2023-05-10T07:23:38.219Z,101122.72
2023-05-10T07:26:04.858Z,101126.63
2023-05-10T07:28:31.259Z,101134.50
2023-05-10T07:30:57.889Z,101134.84
2023-05-10T07:33:24.278Z,101146.34
2023-05-10T07:35:51.022Z,101147.16
2023-05-10T07:38:18.410Z,101151.19
2023-05-10T07:40:44.848Z,101163.13
2023-05-10T07:43:11.454Z,101155.69
2023-05-10T07:45:37.859Z,101152.47
2023-05-10T07:48:04.362Z,101161.97
2023-05-10T07:50:30.760Z,101154.19
2023-05-10T07:52:57.460Z,101160.75
2023-05-10T07:55:23.858Z,101166.88
2023-05-10T07:57:50.322Z,101164.56
2023-05-10T08:00:21.218Z,101169.91
2023-05-10T08:02:48.534Z,101160.75
2023-05-10T08:05:15.701Z,101167.09
2023-05-10T08:07:43.520Z,101182.22
2023-05-10T08:10:11.883Z,101174.97
2023-05-10T08:12:39.139Z,101188.47
2023-05-10T08:15:06.237Z,101191.00
2023-05-10T08:17:32.697Z,101183.47
2023-05-10T08:19:59.114Z,101184.25
2023-05-10T08:22:25.467Z,101187.34
2023-05-10T08:24:52.027Z,101187.78
2023-05-10T08:27:18.458Z,101194.38
2023-05-10T08:29:50.007Z,101189.69
2023-05-10T08:32:16.634Z,101195.16
2023-05-10T08:34:43.210Z,101194.63
2023-05-10T08:37:09.723Z,101202.31
2023-05-10T08:39:36.801Z,101212.47
2023-05-10T08:42:05.721Z,101210.44
2023-05-10T08:44:35.285Z,101211.22
2023-05-10T08:47:07.949Z,101222.41
2023-05-10T08:49:35.107Z,101215.16
2023-05-10T08:52:06.375Z,101225.63
2023-05-10T08:54:34.052Z,101214.94
2023-05-10T08:57:00.944Z,101224.81
2023-05-10T08:59:28.058Z,101229.88
2023-05-10T09:01:56.672Z,101223.84
2023-05-10T09:04:24.379Z,101230.53
2023-05-10T09:06:50.900Z,101223.63
2023-05-10T09:09:18.754Z,101223.09
2023-05-10T09:11:45.859Z,101225.00
2023-05-10T09:14:13.488Z,101229.59
2023-05-10T09:16:42.123Z,101226.16
2023-05-10T09:19:09.604Z,101226.81
2023-05-10T09:21:40.011Z,101226.38
2023-05-10T09:24:07.714Z,101233.84
2023-05-10T09:26:36.242Z,101228.16
2023-05-10T09:29:08.042Z,101232.91
2023-05-10T09:31:55.570Z,101228.53
2023-05-10T09:34:30.371Z,101234.44
2023-05-10T09:37:01.632Z,101238.03
2023-05-10T09:39:35.130Z,101240.66
2023-05-10T09:42:07.241Z,101254.72
2023-05-10T09:44:34.834Z,101247.50
2023-05-10T09:47:02.820Z,101254.53
2023-05-10T09:49:29.429Z,101254.78
2023-05-10T09:52:07.232Z,101261.28
2023-05-10T09:54:36.148Z,101267.00
2023-05-10T09:57:03.273Z,101266.50
2023-05-10T09:59:30.249Z,101264.34
2023-05-10T10:01:58.272Z,101265.22
2023-05-10T10:04:24.827Z,101267.03
2023-05-10T10:07:02.557Z,101267.28
2023-05-10T10:09:30.210Z,101269.44
2023-05-10T10:11:57.540Z,101270.81
2023-05-10T10:14:27.263Z,101268.25
2023-05-10T10:17:06.574Z,101278.31
2023-05-10T10:19:36.048Z,101276.16
2023-05-10T10:22:02.730Z,101282.31
2023-05-10T10:24:29.062Z,101280.34
2023-05-10T10:27:03.307Z,101280.09
2023-05-10T10:29:49.407Z,101282.69
2023-05-10T10:32:39.429Z,101278.53
2023-05-10T10:35:07.492Z,101275.50
2023-05-10T10:37:47.742Z,101289.78
2023-05-10T10:40:28.162Z,101286.16
2023-05-10T10:42:55.769Z,101287.19
2023-05-10T10:45:23.547Z,101282.00
2023-05-10T10:47:54.579Z,101288.72
2023-05-10T10:50:21.046Z,101288.31
2023-05-10T10:52:49.603Z,101289.69
2023-05-10T10:55:24.585Z,101291.59
2023-05-10T10:57:53.138Z,101293.50
2023-05-10T11:00:23.703Z,101287.72
2023-05-10T11:03:11.646Z,101285.19
2023-05-10T11:05:39.798Z,101288.41
2023-05-10T11:08:26.599Z,101288.41
2023-05-10T11:10:59.866Z,101290.47
2023-05-10T11:13:33.836Z,101290.31
2023-05-10T11:16:11.648Z,101295.81
2023-05-10T11:18:38.835Z,101287.25
2023-05-10T11:21:10.118Z,101295.66
2023-05-10T11:23:49.626Z,101292.72
2023-05-10T11:26:16.252Z,101297.41
2023-05-10T11:28:49.738Z,101293.59
2023-05-10T11:31:20.268Z,101291.78
2023-05-10T11:33:48.288Z,101291.97
2023-05-10T11:36:20.028Z,101296.28
2023-05-10T11:38:47.376Z,101291.16
2023-05-10T11:41:14.405Z,101289.44
2023-05-10T11:43:41.649Z,101293.06
2023-05-10T11:46:13.058Z,101287.84
2023-05-10T11:48:40.633Z,101279.50
2023-05-10T11:51:11.349Z,101288.66
2023-05-10T11:53:38.916Z,101288.97
2023-05-10T11:56:10.321Z,101293.44
2023-05-10T11:58:38.649Z,101293.63
2023-05-10T12:01:08.005Z,101297.38
2023-05-10T12:03:35.304Z,101304.69
2023-05-10T12:06:02.982Z,101307.03
2023-05-10T12:08:30.680Z,101305.72
2023-05-10T12:11:08.557Z,101308.28
2023-05-10T12:13:43.242Z,101308.44
2023-05-10T12:16:30.072Z,101307.03
2023-05-10T12:19:01.295Z,101298.81
2023-05-10T12:21:31.338Z,101307.38
2023-05-10T12:24:03.341Z,101300.94
2023-05-10T12:26:30.724Z,101307.88
2023-05-10T12:29:16.888Z,101303.56
2023-05-10T12:31:53.359Z,101299.94
2023-05-10T12:34:37.099Z,101301.78
2023-05-10T12:37:04.554Z,101297.69
2023-05-10T12:39:42.102Z,101301.09
2023-05-10T12:42:08.657Z,101294.50
2023-05-10T12:44:35.037Z,101301.94
2023-05-10T12:47:01.482Z,101297.88
2023-05-10T12:49:27.856Z,101300.63
2023-05-10T12:51:54.290Z,101302.13
2023-05-10T12:54:20.678Z,101299.50
2023-05-10T12:56:47.222Z,101302.06
2023-05-10T12:59:13.535Z,101309.16
2023-05-10T13:01:40.157Z,101317.84
2023-05-10T13:04:06.577Z,101318.09
2023-05-10T13:06:33.047Z,101315.09
2023-05-10T13:08:59.464Z,101320.63
2023-05-10T13:11:26.132Z,101328.25
2023-05-10T13:13:52.768Z,101331.34
2023-05-10T13:16:19.193Z,101342.56
2023-05-10T13:18:45.625Z,101347.91
2023-05-10T13:21:12.212Z,101350.94
2023-05-10T13:23:38.587Z,101351.44
2023-05-10T13:26:05.094Z,101347.84
2023-05-10T13:28:31.589Z,101348.72
2023-05-10T13:30:58.024Z,101359.44
2023-05-10T13:33:24.450Z,101358.59
2023-05-10T13:35:50.786Z,101370.47
2023-05-10T13:38:17.187Z,101367.03
2023-05-10T13:40:43.575Z,101373.97
2023-05-10T13:43:09.913Z,101381.66
2023-05-10T13:45:36.645Z,101385.44
2023-05-10T13:48:03.352Z,101383.44
2023-05-10T13:50:31.042Z,101374.84
2023-05-10T13:52:57.935Z,101381.53
2023-05-10T13:55:24.307Z,101383.66
2023-05-10T13:57:50.673Z,101381.97
2023-05-10T14:00:17.389Z,101377.25
2023-05-10T14:02:43.859Z,101375.84
2023-05-10T14:05:10.305Z,101378.72
2023-05-10T14:07:36.669Z,101380.81
2023-05-10T14:10:03.715Z,101384.25
2023-05-10T14:12:31.152Z,101373.13
2023-05-10T14:14:58.977Z,101376.44
2023-05-10T14:17:25.378Z,101382.00
2023-05-10T14:19:51.865Z,101378.19
2023-05-10T14:22:19.161Z,101385.16
2023-05-10T14:24:47.696Z,101389.81
2023-05-10T14:27:14.200Z,101379.78
2023-05-10T14:29:40.756Z,101384.47
2023-05-10T14:32:07.391Z,101379.78
2023-05-10T14:34:34.001Z,101379.13
2023-05-10T14:37:00.528Z,101385.59
2023-05-10T14:39:30.346Z,101386.22
2023-05-10T14:41:57.017Z,101384.03
2023-05-10T14:44:23.711Z,101378.78
2023-05-10T14:46:50.583Z,101380.38
2023-05-10T14:49:16.905Z,101375.78
2023-05-10T14:51:43.394Z,101381.59
2023-05-10T14:54:13.179Z,101375.09
2023-05-10T14:56:39.802Z,101372.59
2023-05-10T14:59:06.267Z,101375.06
2023-05-10T15:01:33.925Z,101379.72
2023-05-10T15:04:00.949Z,101382.09
2023-05-10T15:06:35.556Z,101384.56
2023-05-10T15:09:04.180Z,101375.84
2023-05-10T15:11:30.733Z,101385.00
2023-05-10T15:13:57.121Z,101374.97
2023-05-10T15:16:23.514Z,101377.41
2023-05-10T15:18:49.968Z,101368.50
2023-05-10T15:21:16.371Z,101370.28
2023-05-10T15:23:42.705Z,101373.28
2023-05-10T15:26:09.025Z,101367.94
2023-05-10T15:28:35.499Z,101372.50
2023-05-10T15:31:01.838Z,101378.97
2023-05-10T15:33:28.431Z,101379.19
2023-05-10T15:35:54.886Z,101379.28
2023-05-10T15:38:21.233Z,101385.44
2023-05-10T15:40:47.567Z,101380.28
2023-05-10T15:43:14.771Z,101383.41
2023-05-10T15:45:41.487Z,101378.94
2023-05-10T15:48:07.893Z,101379.16
2023-05-10T15:50:34.276Z,101383.59
2023-05-10T15:53:00.600Z,101387.50
2023-05-10T15:55:27.776Z,101387.28
2023-05-10T15:57:54.134Z,101386.94
2023-05-10T16:00:20.572Z,101392.06
2023-05-10T16:02:47.050Z,101396.31
2023-05-10T16:05:14.121Z,101391.72
2023-05-10T16:07:41.757Z,101400.13
2023-05-10T16:10:10.236Z,101399.78
2023-05-10T16:12:36.979Z,101401.78
2023-05-10T16:15:03.549Z,101409.38
2023-05-10T16:17:29.941Z,101403.22
2023-05-10T16:19:56.360Z,101403.94
2023-05-10T16:22:27.239Z,101403.66
2023-05-10T16:24:53.864Z,101405.25
2023-05-10T16:27:20.268Z,101406.84
2023-05-10T16:29:47.742Z,101414.44
2023-05-10T16:32:14.138Z,101410.75
2023-05-10T16:34:40.499Z,101408.41
2023-05-10T16:37:06.893Z,101409.84
2023-05-10T16:39:33.227Z,101415.22
2023-05-10T16:41:59.557Z,101417.56
2023-05-10T16:44:26.110Z,101409.28
2023-05-10T16:46:53.099Z,101410.50
2023-05-10T16:49:19.459Z,101413.72
2023-05-10T16:51:46.144Z,101408.78
2023-05-10T16:54:12.490Z,101412.13
2023-05-10T16:56:38.893Z,101413.56
2023-05-10T16:59:05.714Z,101411.84
2023-05-10T17:01:33.753Z,101415.41
2023-05-10T17:04:00.306Z,101419.34
2023-05-10T17:06:26.686Z,101411.28
2023-05-10T17:08:52.997Z,101412.72
2023-05-10T17:11:20.980Z,101414.81
2023-05-10T17:13:47.544Z,101414.38
2023-05-10T17:16:14.059Z,101421.91
2023-05-10T17:18:41.577Z,101430.28
2023-05-10T17:21:09.203Z,101424.81
2023-05-10T17:23:35.528Z,101427.16
2023-05-10T17:26:04.494Z,101430.97
2023-05-10T17:28:31.013Z,101432.16
2023-05-10T17:30:57.939Z,101436.88
2023-05-10T17:33:24.297Z,101446.03
2023-05-10T17:35:50.680Z,101441.09
2023-05-10T17:38:17.073Z,101443.56
2023-05-10T17:40:43.666Z,101443.31
2023-05-10T17:43:09.967Z,101447.44
2023-05-10T17:45:36.313Z,101454.53
2023-05-10T17:48:03.446Z,101455.69
2023-05-10T17:50:29.811Z,101460.72
2023-05-10T17:52:56.327Z,101458.81
2023-05-10T17:55:22.669Z,101469.53
2023-05-10T17:57:51.081Z,101468.00
2023-05-10T18:00:18.350Z,101469.13
2023-05-10T18:02:44.794Z,101461.72
2023-05-10T18:05:11.842Z,101466.91
2023-05-10T18:07:38.490Z,101464.88
2023-05-10T18:10:05.240Z,101471.25
2023-05-10T18:12:31.602Z,101466.94
2023-05-10T18:14:57.921Z,101468.59
2023-05-10T18:17:24.911Z,101467.06
2023-05-10T18:19:51.470Z,101473.09
2023-05-10T18:22:17.809Z,101471.41
2023-05-10T18:24:44.607Z,101477.44
2023-05-10T18:27:11.231Z,101469.16
2023-05-10T18:29:37.672Z,101476.31
2023-05-10T18:32:04.502Z,101478.56
2023-05-10T18:34:30.826Z,101479.56
2023-05-10T18:36:57.257Z,101475.66
2023-05-10T18:39:24.369Z,101481.03
2023-05-10T18:41:50.855Z,101472.53
2023-05-10T18:44:19.069Z,101472.44
2023-05-10T18:46:46.223Z,101480.56
2023-05-10T18:49:12.711Z,101480.00
2023-05-10T18:51:39.291Z,101484.94
2023-05-10T18:54:05.759Z,101487.47
2023-05-10T18:56:32.154Z,101487.69
2023-05-10T18:58:58.474Z,101494.81
2023-05-10T19:01:24.944Z,101482.47
2023-05-10T19:03:51.335Z,101497.97
2023-05-10T19:06:17.656Z,101492.81
2023-05-10T19:08:44.037Z,101496.47
2023-05-10T19:11:10.375Z,101499.72
2023-05-10T19:13:36.833Z,101488.72
2023-05-10T19:16:05.314Z,101498.44
2023-05-10T19:18:32.478Z,101505.88
2023-05-10T19:21:01.598Z,101498.72
2023-05-10T19:23:29.037Z,101502.34
2023-05-10T19:25:55.558Z,101511.34
2023-05-10T19:28:22.164Z,101506.66
2023-05-10T19:30:50.170Z,101506.41
2023-05-10T19:33:19.736Z,101517.97
2023-05-10T19:35:46.117Z,101514.72
2023-05-10T19:38:12.526Z,101526.38
2023-05-10T19:40:38.956Z,101525.44
2023-05-10T19:43:05.332Z,101526.91
2023-05-10T19:45:31.691Z,101530.53
2023-05-10T19:47:58.088Z,101533.84
2023-05-10T19:50:24.702Z,101534.03
2023-05-10T19:52:51.460Z,101534.38
2023-05-10T19:55:27.789Z,101524.78
2023-05-10T19:57:54.263Z,101532.03
2023-05-10T20:00:20.880Z,101529.53
2023-05-10T20:02:47.280Z,101536.63
2023-05-10T20:05:13.661Z,101544.84
2023-05-10T20:07:40.010Z,101540.78
2023-05-10T20:10:06.936Z,101535.78
2023-05-10T20:12:33.492Z,101537.09
2023-05-10T20:14:59.807Z,101538.53
2023-05-10T20:17:26.208Z,101544.97
2023-05-10T20:19:52.958Z,101546.09
2023-05-10T20:22:19.291Z,101540.91
2023-05-10T20:24:45.627Z,101548.78
2023-05-10T20:27:12.017Z,101551.00
2023-05-10T20:29:38.338Z,101551.63
2023-05-10T20:32:05.155Z,101547.38
2023-05-10T20:34:31.605Z,101543.16
2023-05-10T20:36:58.092Z,101553.50
2023-05-10T20:39:24.405Z,101551.63
2023-05-10T20:41:50.763Z,101556.34
2023-05-10T20:44:17.107Z,101555.41
2023-05-10T20:46:43.571Z,101556.81
2023-05-10T20:49:09.952Z,101553.34
2023-05-10T20:51:36.271Z,101555.25
2023-05-10T20:54:04.244Z,101553.34
2023-05-10T20:56:31.175Z,101554.13
2023-05-10T20:58:57.700Z,101554.94
2023-05-10T21:01:25.030Z,101559.97
2023-05-10T21:03:51.528Z,101559.63
2023-05-10T21:06:17.894Z,101559.00
2023-05-10T21:08:44.244Z,101550.34
2023-05-10T21:11:10.643Z,101555.34
2023-05-10T21:13:37.144Z,101553.00
2023-05-10T21:16:04.802Z,101554.13
2023-05-10T21:18:31.333Z,101550.66
2023-05-10T21:20:58.605Z,101551.00
2023-05-10T21:23:25.078Z,101553.97
2023-05-10T21:25:51.642Z,101555.41
2023-05-10T21:28:18.041Z,101548.50
2023-05-10T21:30:44.393Z,101547.38
2023-05-10T21:33:11.308Z,101541.72
2023-05-10T21:35:39.329Z,101547.84
2023-05-10T21:38:05.848Z,101543.59
2023-05-10T21:40:32.487Z,101545.03
2023-05-10T21:42:58.793Z,101534.19
2023-05-10T21:45:25.122Z,101533.75
2023-05-10T21:47:51.528Z,101538.16
2023-05-10T21:50:18.298Z,101547.09
2023-05-10T21:52:44.789Z,101538.63
2023-05-10T21:55:11.200Z,101538.91
2023-05-10T21:57:37.556Z,101544.91
2023-05-10T22:00:04.824Z,101548.97
2023-05-10T22:02:31.316Z,101543.19
2023-05-10T22:04:57.991Z,101551.97
2023-05-10T22:07:24.332Z,101545.06
2023-05-10T22:09:50.752Z,101549.63
2023-05-10T22:12:17.071Z,101550.41
2023-05-10T22:14:43.468Z,101552.31
2023-05-10T22:17:10.069Z,101557.97
2023-05-10T22:19:36.558Z,101558.59
2023-05-10T22:22:02.995Z,101563.94
2023-05-10T22:24:30.118Z,101561.25
2023-05-10T22:26:56.619Z,101552.94
2023-05-10T22:29:23.656Z,101553.25
2023-05-10T22:31:50.075Z,101554.38
2023-05-10T22:34:16.419Z,101551.53
2023-05-10T22:36:42.954Z,101557.19
2023-05-10T22:39:09.297Z,101553.75
2023-05-10T22:41:35.881Z,101556.09
2023-05-10T22:44:02.664Z,101554.53
2023-05-10T22:46:29.577Z,101549.97
2023-05-10T22:48:56.428Z,101556.75
2023-05-10T22:51:22.933Z,101555.63
2023-05-10T22:53:49.373Z,101557.19
2023-05-10T22:56:15.820Z,101560.66
2023-05-10T22:58:42.213Z,101562.22
2023-05-10T23:01:08.560Z,101561.75
2023-05-10T23:03:35.332Z,101557.53
2023-05-10T23:06:01.635Z,101560.50
2023-05-10T23:08:28.168Z,101560.50
2023-05-10T23:10:54.674Z,101560.03
2023-05-10T23:13:21.691Z,101563.03
2023-05-10T23:15:48.404Z,101567.09
2023-05-10T23:18:15.415Z,101564.75
2023-05-10T23:20:42.754Z,101565.84
2023-05-10T23:23:10.310Z,101574.63
2023-05-10T23:25:37.596Z,101575.75
2023-05-10T23:28:04.541Z,101579.03
2023-05-10T23:30:31.597Z,101574.81
2023-05-10T23:32:58.027Z,101587.03
2023-05-10T23:35:24.398Z,101581.69
2023-05-10T23:37:50.885Z,101575.25
2023-05-10T23:40:17.436Z,101571.50
2023-05-10T23:42:44.103Z,101579.97
2023-05-10T23:45:11.264Z,101577.94
2023-05-10T23:47:37.741Z,101574.81
2023-05-10T23:50:05.260Z,101572.47
2023-05-10T23:52:31.650Z,101571.69
2023-05-10T23:54:58.073Z,101577.78
2023-05-10T23:57:24.540Z,101569.78
2023-05-10T23:59:50.982Z,101573.25
